Time;durP1;ratioP1;P1;durP2;ratioP2;P2;SDS_P1;SDS_P2;PMS_P1;PMS_P2;Temp;Humidity;BMP_temperature;BMP_pressure;BME280_temperature;BME280_humidity;BME280_pressure;Samples;Min_cycle;Max_cycle;Signal;HPM_P1;HPM_P2
2021/12/11 00:00:57;;;;;;;24.42;17.52;;;-1.30;99.90;;;;;;5054072;28;20400;-84
2021/12/11 00:03:23;;;;;;;26.60;17.23;;;-1.40;99.90;;;;;;5063327;28;20052;-85
2021/12/11 00:05:50;;;;;;;28.05;17.52;;;-1.40;99.90;;;;;;5066988;28;20053;-82
2021/12/11 00:08:17;;;;;;;25.48;15.90;;;-1.40;99.90;;;;;;5057673;28;20472;-84
2021/12/11 00:10:43;;;;;;;29.55;16.10;;;-1.20;99.90;;;;;;5071314;28;20060;-82
2021/12/11 00:13:10;;;;;;;21.67;15.27;;;-1.30;99.90;;;;;;5055484;28;20059;-84
2021/12/11 00:15:36;;;;;;;21.92;14.05;;;-1.40;99.90;;;;;;5068255;28;20057;-85
2021/12/11 00:18:03;;;;;;;27.02;17.15;;;-1.40;99.90;;;;;;5067183;28;20048;-83
2021/12/11 00:20:29;;;;;;;22.13;14.32;;;-1.40;99.90;;;;;;5061292;28;20051;-85
2021/12/11 00:22:56;;;;;;;31.17;15.52;;;-1.40;99.90;;;;;;5064070;28;20487;-84
2021/12/11 00:25:22;;;;;;;33.17;15.90;;;-1.40;99.90;;;;;;5064981;28;20053;-84
2021/12/11 00:27:49;;;;;;;24.38;15.25;;;-1.40;99.90;;;;;;5061782;28;20053;-84
2021/12/11 00:30:15;;;;;;;22.63;14.85;;;-1.40;99.90;;;;;;5060975;28;20067;-85
2021/12/11 00:32:42;;;;;;;27.35;16.60;;;-1.50;99.90;;;;;;5066338;28;20048;-85
2021/12/11 00:35:08;;;;;;;20.48;14.57;;;-1.50;99.90;;;;;;5051251;28;20052;-85
2021/12/11 00:37:35;;;;;;;27.00;15.55;;;-1.40;99.90;;;;;;5061117;28;20045;-86
2021/12/11 00:40:01;;;;;;;26.35;15.68;;;-1.50;99.90;;;;;;5062889;28;20048;-85
2021/12/11 00:42:33;;;;;;;23.83;15.75;;;-1.40;99.90;;;;;;5058765;28;20048;-85
2021/12/11 00:45:00;;;;;;;26.98;16.77;;;-1.50;99.90;;;;;;5063094;28;20052;-87
2021/12/11 00:47:26;;;;;;;18.98;15.13;;;-1.40;99.90;;;;;;5067135;28;20057;-85
2021/12/11 00:49:53;;;;;;;27.83;16.08;;;-1.50;99.90;;;;;;5057667;28;20044;-82
2021/12/11 00:52:19;;;;;;;33.08;17.02;;;-1.40;99.90;;;;;;5060612;28;20041;-86
2021/12/11 00:54:46;;;;;;;23.52;16.45;;;-1.30;99.90;;;;;;5061695;28;20041;-85
2021/12/11 00:57:13;;;;;;;27.10;17.13;;;-1.30;99.90;;;;;;5050174;28;20065;-85
2021/12/11 00:59:39;;;;;;;22.73;16.58;;;-1.30;99.90;;;;;;5064639;28;20067;-84
2021/12/11 01:02:06;;;;;;;32.97;18.88;;;-1.20;99.90;;;;;;5054905;28;20045;-83
2021/12/11 01:04:32;;;;;;;27.05;17.83;;;-1.20;99.90;;;;;;5064003;28;20052;-84
2021/12/11 01:06:59;;;;;;;25.75;16.55;;;-1.30;99.90;;;;;;5067381;28;20490;-86
2021/12/11 01:09:25;;;;;;;26.80;18.30;;;-1.40;99.90;;;;;;5062803;28;20044;-85
2021/12/11 01:11:52;;;;;;;27.73;17.05;;;-1.50;99.90;;;;;;5061738;28;20084;-84
2021/12/11 01:14:24;;;;;;;25.67;16.13;;;-1.60;99.90;;;;;;5064993;28;20048;-85
2021/12/11 01:16:50;;;;;;;24.52;16.02;;;-1.70;99.90;;;;;;5068679;28;20129;-85
2021/12/11 01:19:19;;;;;;;31.52;17.77;;;-1.80;99.90;;;;;;5065649;28;20048;-85
2021/12/11 01:21:56;;;;;;;25.98;16.95;;;-1.80;99.90;;;;;;5069278;28;20048;-85
2021/12/11 01:24:29;;;;;;;28.48;16.98;;;-1.80;99.90;;;;;;5058532;28;20546;-85
2021/12/11 01:26:56;;;;;;;23.33;15.27;;;-1.80;99.90;;;;;;5051399;28;20044;-82
2021/12/11 01:29:23;;;;;;;26.63;15.60;;;-1.80;99.90;;;;;;5061541;28;20052;-84
2021/12/11 01:31:49;;;;;;;28.42;17.20;;;-1.80;99.90;;;;;;5051780;28;20057;-83
2021/12/11 01:34:16;;;;;;;30.60;19.52;;;-1.90;99.90;;;;;;5058008;28;20057;-85
2021/12/11 01:36:42;;;;;;;32.55;16.98;;;-1.90;99.90;;;;;;5066778;28;20056;-85
2021/12/11 01:39:09;;;;;;;23.13;15.48;;;-2.00;99.90;;;;;;5065893;28;20067;-84
2021/12/11 01:41:35;;;;;;;31.08;17.98;;;-2.00;99.90;;;;;;5060483;28;20481;-85
2021/12/11 01:44:02;;;;;;;30.48;17.90;;;-1.90;99.90;;;;;;5065511;28;20056;-84
2021/12/11 01:46:28;;;;;;;31.02;18.13;;;-2.00;99.90;;;;;;5063030;28;20056;-85
2021/12/11 01:48:58;;;;;;;24.00;17.25;;;-2.00;99.90;;;;;;5065614;28;20049;-85
2021/12/11 01:51:25;;;;;;;25.75;17.48;;;-2.00;99.90;;;;;;5067359;28;20499;-85
2021/12/11 01:53:51;;;;;;;29.80;17.60;;;-2.00;99.90;;;;;;5058384;28;20075;-85
2021/12/11 01:56:18;;;;;;;31.77;16.77;;;-2.00;99.90;;;;;;5057960;28;20400;-85
2021/12/11 01:58:44;;;;;;;25.98;17.33;;;-2.00;99.90;;;;;;5058440;28;20056;-85
2021/12/11 02:01:11;;;;;;;26.05;17.80;;;-2.00;99.90;;;;;;5065602;28;20048;-84
2021/12/11 02:03:37;;;;;;;25.08;15.95;;;-2.10;99.90;;;;;;5061745;28;20053;-85
2021/12/11 02:06:04;;;;;;;25.92;16.35;;;-2.00;99.90;;;;;;5055158;28;20045;-85
2021/12/11 02:08:30;;;;;;;26.30;16.42;;;-2.10;99.90;;;;;;5057032;28;20095;-85
2021/12/11 02:10:57;;;;;;;32.95;19.33;;;-2.10;99.90;;;;;;5068419;28;20052;-85
2021/12/11 02:13:35;;;;;;;31.70;17.98;;;-2.10;99.90;;;;;;5069470;28;20056;-86
2021/12/11 02:16:02;;;;;;;26.30;17.00;;;-2.10;99.90;;;;;;5067488;28;20052;-81
2021/12/11 02:18:34;;;;;;;27.83;18.33;;;-2.10;99.90;;;;;;5064253;28;20088;-85
2021/12/11 02:21:00;;;;;;;29.30;17.70;;;-2.10;99.90;;;;;;5065859;28;20095;-83
2021/12/11 02:23:27;;;;;;;33.22;18.30;;;-2.00;99.90;;;;;;5067336;28;20127;-85
2021/12/11 02:25:54;;;;;;;28.27;18.95;;;-2.00;99.90;;;;;;5060604;28;20511;-84
2021/12/11 02:28:20;;;;;;;27.02;17.88;;;-2.00;99.90;;;;;;5059665;28;20535;-84
2021/12/11 02:30:47;;;;;;;32.05;18.98;;;-2.00;99.90;;;;;;5058108;28;20053;-84
2021/12/11 02:33:14;;;;;;;39.13;20.42;;;-2.00;99.90;;;;;;5059901;28;20053;-86
2021/12/11 02:35:41;;;;;;;31.00;20.15;;;-2.00;99.90;;;;;;5060766;28;20041;-84
2021/12/11 02:38:10;;;;;;;22.80;17.35;;;-2.00;99.90;;;;;;5060307;28;20052;-85
2021/12/11 02:40:36;;;;;;;30.27;18.48;;;-2.00;99.90;;;;;;5061114;28;20132;-86
2021/12/11 02:43:03;;;;;;;26.50;18.92;;;-2.10;99.90;;;;;;5062481;28;20051;-81
2021/12/11 02:45:29;;;;;;;37.90;21.23;;;-2.00;99.90;;;;;;5068751;28;20477;-85
2021/12/11 02:47:56;;;;;;;31.30;18.50;;;-2.00;99.90;;;;;;5068957;28;20511;-87
2021/12/11 02:50:22;;;;;;;29.50;18.73;;;-2.10;99.90;;;;;;5060803;28;20051;-84
2021/12/11 02:52:49;;;;;;;35.60;20.23;;;-2.10;99.90;;;;;;5061919;28;20056;-86
2021/12/11 02:55:16;;;;;;;31.58;18.38;;;-2.20;99.90;;;;;;5070558;28;20056;-86
2021/12/11 02:57:42;;;;;;;37.03;18.90;;;-2.30;99.90;;;;;;5060061;28;20110;-86
2021/12/11 03:00:09;;;;;;;35.72;20.38;;;-2.30;99.90;;;;;;5067989;28;20071;-86
2021/12/11 03:02:36;;;;;;;40.88;21.85;;;-2.40;99.90;;;;;;5074642;28;20057;-86
2021/12/11 03:05:09;;;;;;;34.78;20.80;;;-2.40;99.90;;;;;;5065744;28;20500;-87
2021/12/11 03:07:38;;;;;;;33.85;21.08;;;-2.40;99.90;;;;;;5060204;28;20052;-87
2021/12/11 03:10:04;;;;;;;31.20;19.25;;;-2.40;99.90;;;;;;5067225;28;20048;-83
2021/12/11 03:12:31;;;;;;;27.92;19.65;;;-2.40;99.90;;;;;;5064903;28;20052;-87
2021/12/11 03:14:57;;;;;;;38.10;19.95;;;-2.40;99.90;;;;;;5064724;28;20044;-87
2021/12/11 03:17:27;;;;;;;34.97;21.00;;;-2.40;99.90;;;;;;5056667;28;20541;-88
2021/12/11 03:19:53;;;;;;;31.35;20.48;;;-2.30;99.90;;;;;;5071421;28;20217;-86
2021/12/11 03:22:20;;;;;;;28.17;18.20;;;-2.30;99.90;;;;;;5060950;28;20052;-86
2021/12/11 03:24:47;;;;;;;33.40;19.05;;;-2.40;99.90;;;;;;5058406;28;20044;-85
2021/12/11 03:27:13;;;;;;;31.77;20.40;;;-2.30;99.90;;;;;;5065083;28;20057;-85
2021/12/11 03:29:40;;;;;;;27.55;19.80;;;-2.40;99.90;;;;;;5062742;28;20060;-85
2021/12/11 03:32:06;;;;;;;33.92;20.45;;;-2.30;99.90;;;;;;5063637;28;20041;-81
2021/12/11 03:34:33;;;;;;;32.67;20.80;;;-2.40;99.90;;;;;;5065550;28;20061;-85
2021/12/11 03:37:00;;;;;;;29.90;19.45;;;-2.50;99.90;;;;;;5062170;28;20406;-85
2021/12/11 03:39:26;;;;;;;31.90;20.25;;;-2.50;99.90;;;;;;5062470;28;20876;-85
2021/12/11 03:41:53;;;;;;;36.00;19.00;;;-2.50;99.90;;;;;;5059094;28;20067;-86
2021/12/11 03:44:20;;;;;;;29.60;18.38;;;-2.50;99.90;;;;;;5067788;28;20074;-85
2021/12/11 03:46:46;;;;;;;25.25;17.67;;;-2.60;99.90;;;;;;5067824;28;20404;-82
2021/12/11 03:49:13;;;;;;;28.75;18.10;;;-2.60;99.90;;;;;;5065909;28;20408;-86
2021/12/11 03:51:40;;;;;;;33.33;19.08;;;-2.60;99.90;;;;;;5062133;28;20128;-86
2021/12/11 03:54:06;;;;;;;30.98;18.48;;;-2.60;99.90;;;;;;5062343;28;20502;-87
2021/12/11 03:56:33;;;;;;;30.08;18.60;;;-2.60;99.90;;;;;;5058752;28;20130;-87
2021/12/11 03:59:00;;;;;;;33.75;19.83;;;-2.60;99.90;;;;;;5063053;28;20060;-85
2021/12/11 04:01:27;;;;;;;29.83;18.55;;;-2.60;99.90;;;;;;5066893;28;20098;-84
2021/12/11 04:03:53;;;;;;;35.80;21.55;;;-2.70;99.90;;;;;;5062926;28;20044;-85
2021/12/11 04:06:20;;;;;;;34.63;20.95;;;-2.80;99.90;;;;;;5064985;28;20053;-86
2021/12/11 04:08:46;;;;;;;54.63;22.40;;;-2.80;99.90;;;;;;5065772;28;20045;-85
2021/12/11 04:11:13;;;;;;;44.85;25.17;;;-2.80;99.90;;;;;;5067516;28;20488;-84
2021/12/11 04:13:39;;;;;;;47.47;23.75;;;-2.80;99.90;;;;;;5060978;28;20048;-85
2021/12/11 04:16:06;;;;;;;39.95;22.67;;;-2.90;99.90;;;;;;5069476;28;20044;-85
2021/12/11 04:18:33;;;;;;;34.78;21.23;;;-2.90;99.90;;;;;;5059937;28;20481;-86
2021/12/11 04:20:59;;;;;;;35.67;20.45;;;-2.80;99.90;;;;;;5069729;28;20218;-85
2021/12/11 04:23:26;;;;;;;34.80;21.60;;;-2.80;99.90;;;;;;5064944;28;20045;-85
2021/12/11 04:25:52;;;;;;;37.92;23.15;;;-2.70;99.90;;;;;;5054925;28;20075;-86
2021/12/11 04:28:20;;;;;;;36.97;22.45;;;-2.60;99.90;;;;;;5053098;28;20045;-86
2021/12/11 04:30:47;;;;;;;32.55;21.48;;;-2.40;99.90;;;;;;5062305;28;20049;-83
2021/12/11 04:33:13;;;;;;;34.78;22.27;;;-2.00;99.90;;;;;;5058272;28;20052;-83
2021/12/11 04:35:42;;;;;;;37.53;22.23;;;-2.10;99.90;;;;;;5080616;28;20094;-85
2021/12/11 04:38:09;;;;;;;31.75;22.23;;;-2.30;99.90;;;;;;5062943;28;20467;-84
2021/12/11 04:40:37;;;;;;;32.30;20.38;;;-2.30;99.90;;;;;;5067089;28;20053;-84
2021/12/11 04:43:06;;;;;;;32.25;19.80;;;-2.30;99.90;;;;;;5063340;28;20044;-84
2021/12/11 04:45:34;;;;;;;28.50;21.08;;;-2.30;99.90;;;;;;5063050;28;20048;-85
2021/12/11 04:48:08;;;;;;;28.65;18.35;;;-2.40;99.90;;;;;;5068098;28;20055;-85
2021/12/11 04:50:41;;;;;;;34.67;20.95;;;-2.40;99.90;;;;;;5067893;28;20056;-84
2021/12/11 04:53:23;;;;;;;29.52;19.35;;;-2.20;99.90;;;;;;5064971;28;20045;-86
2021/12/11 04:56:01;;;;;;;33.05;19.73;;;-2.30;99.90;;;;;;5062475;28;20128;-85
2021/12/11 04:58:55;;;;;;;35.30;21.75;;;-2.30;99.90;;;;;;5063741;28;20503;-85
2021/12/11 05:01:38;;;;;;;28.35;17.08;;;-2.40;99.90;;;;;;5061210;28;20105;-86
2021/12/11 05:04:34;;;;;;;28.95;18.92;;;-2.40;99.90;;;;;;5069081;28;20092;-85
2021/12/11 05:07:05;;;;;;;30.13;19.05;;;-2.50;99.90;;;;;;5060063;28;20481;-86
2021/12/11 05:09:37;;;;;;;29.10;18.00;;;-2.60;99.90;;;;;;5067656;28;20044;-85
2021/12/11 05:12:19;;;;;;;32.70;20.25;;;-2.60;99.90;;;;;;5068167;28;20052;-85
2021/12/11 05:14:45;;;;;;;34.40;18.90;;;-2.60;99.90;;;;;;5067990;28;20531;-85
2021/12/11 05:17:12;;;;;;;24.52;17.83;;;-2.70;99.90;;;;;;5064349;28;20041;-85
2021/12/11 05:19:39;;;;;;;33.78;18.85;;;-2.70;99.90;;;;;;5060286;28;20063;-85
2021/12/11 05:22:05;;;;;;;27.27;18.65;;;-2.70;99.90;;;;;;5059842;28;20051;-85
2021/12/11 05:24:32;;;;;;;30.88;20.20;;;-2.80;99.90;;;;;;5059667;28;20063;-86
2021/12/11 05:26:58;;;;;;;30.65;19.85;;;-2.80;99.90;;;;;;5059687;28;20040;-84
2021/12/11 05:29:25;;;;;;;31.92;20.55;;;-2.80;99.90;;;;;;5052614;28;20044;-85
2021/12/11 05:31:51;;;;;;;34.75;21.85;;;-2.80;99.90;;;;;;5060115;28;20048;-85
2021/12/11 05:34:18;;;;;;;33.05;20.15;;;-2.90;99.90;;;;;;5065369;28;20079;-83
2021/12/11 05:36:44;;;;;;;36.97;21.15;;;-2.90;99.90;;;;;;5061832;28;20049;-84
2021/12/11 05:39:11;;;;;;;34.67;19.65;;;-3.00;99.90;;;;;;5058571;28;20053;-84
2021/12/11 05:41:37;;;;;;;34.97;19.88;;;-3.00;99.90;;;;;;5062515;28;20052;-83
2021/12/11 05:44:04;;;;;;;29.75;19.27;;;-3.10;99.90;;;;;;5059879;28;20045;-84
2021/12/11 05:46:30;;;;;;;29.10;20.35;;;-3.00;99.90;;;;;;5057836;28;20066;-84
2021/12/11 05:48:57;;;;;;;34.85;20.00;;;-3.00;99.90;;;;;;5056161;28;20507;-85
2021/12/11 05:51:23;;;;;;;33.63;21.25;;;-3.00;99.90;;;;;;5066715;28;20492;-84
2021/12/11 05:53:50;;;;;;;31.70;21.08;;;-3.00;99.90;;;;;;5059044;28;20094;-84
2021/12/11 05:56:17;;;;;;;29.48;18.90;;;-2.90;99.90;;;;;;5057280;28;20048;-84
2021/12/11 05:58:56;;;;;;;39.22;21.45;;;-2.90;99.90;;;;;;5060562;28;20136;-84
2021/12/11 06:01:23;;;;;;;33.88;20.77;;;-2.80;99.90;;;;;;5055006;28;20040;-84
2021/12/11 06:03:49;;;;;;;31.88;20.45;;;-2.80;99.90;;;;;;5057972;28;20055;-83
2021/12/11 06:06:16;;;;;;;34.47;23.60;;;-2.70;99.90;;;;;;5064092;28;20049;-85
2021/12/11 06:08:42;;;;;;;42.55;23.77;;;-2.70;99.90;;;;;;5063852;28;20381;-84
2021/12/11 06:11:09;;;;;;;32.38;21.98;;;-2.70;99.90;;;;;;5061601;28;20051;-85
2021/12/11 06:13:35;;;;;;;36.92;20.90;;;-2.60;99.90;;;;;;5057970;28;20045;-84
2021/12/11 06:16:02;;;;;;;29.13;19.23;;;-2.70;99.90;;;;;;5067392;28;20067;-85
2021/12/11 06:18:28;;;;;;;33.38;21.30;;;-2.60;99.90;;;;;;5054022;28;20064;-84
2021/12/11 06:20:55;;;;;;;34.00;22.30;;;-2.60;99.90;;;;;;5057487;28;20048;-84
2021/12/11 06:23:22;;;;;;;28.25;20.92;;;-2.50;99.90;;;;;;5057152;28;20052;-83
2021/12/11 06:25:48;;;;;;;38.30;22.27;;;-2.50;99.90;;;;;;5058384;28;20041;-84
2021/12/11 06:28:15;;;;;;;35.97;21.08;;;-2.50;99.90;;;;;;5055772;28;20048;-84
2021/12/11 06:30:41;;;;;;;34.38;22.58;;;-2.50;99.90;;;;;;5064763;28;20055;-84
2021/12/11 06:33:08;;;;;;;38.60;22.08;;;-2.50;99.90;;;;;;5061394;28;20055;-84
2021/12/11 06:35:34;;;;;;;38.28;20.95;;;-2.40;99.90;;;;;;5065352;28;20051;-85
2021/12/11 06:38:01;;;;;;;32.22;20.15;;;-2.50;99.90;;;;;;5060110;28;20048;-83
2021/12/11 06:40:27;;;;;;;37.50;23.80;;;-2.40;99.90;;;;;;5065876;28;20491;-84
2021/12/11 06:42:54;;;;;;;44.67;23.48;;;-2.40;99.90;;;;;;5063142;28;20060;-83
2021/12/11 06:45:20;;;;;;;40.88;23.05;;;-2.30;99.90;;;;;;5060194;28;20060;-84
2021/12/11 06:47:47;;;;;;;44.53;23.80;;;-2.30;99.90;;;;;;5055993;28;20044;-84
2021/12/11 06:50:14;;;;;;;37.40;22.15;;;-2.30;99.90;;;;;;5057638;28;20076;-84
2021/12/11 06:52:40;;;;;;;36.25;20.48;;;-2.30;99.90;;;;;;5056324;28;20404;-83
2021/12/11 06:55:07;;;;;;;33.35;21.17;;;-2.30;99.90;;;;;;5061133;28;20429;-84
2021/12/11 06:57:33;;;;;;;31.58;22.27;;;-2.30;99.90;;;;;;5066177;28;20044;-84
2021/12/11 07:00:00;;;;;;;40.20;23.17;;;-2.30;99.90;;;;;;5065935;28;20040;-83
2021/12/11 07:02:26;;;;;;;37.33;22.25;;;-2.30;99.90;;;;;;5066227;28;20049;-84
2021/12/11 07:04:54;;;;;;;38.20;24.55;;;-2.30;99.90;;;;;;5062531;28;20044;-84
2021/12/11 07:07:24;;;;;;;38.17;24.25;;;-2.30;99.90;;;;;;5055879;28;20473;-84
2021/12/11 07:09:50;;;;;;;38.80;22.98;;;-2.30;99.90;;;;;;5078709;28;20535;-84
2021/12/11 07:12:17;;;;;;;39.85;23.67;;;-2.30;99.90;;;;;;5061228;28;20082;-84
2021/12/11 07:14:44;;;;;;;39.25;23.25;;;-2.30;99.90;;;;;;5052423;28;20683;-84
2021/12/11 07:17:11;;;;;;;40.75;24.73;;;-2.30;99.90;;;;;;5061103;28;20044;-84
2021/12/11 07:19:37;;;;;;;41.70;22.33;;;-2.30;99.90;;;;;;5072112;28;20087;-84
2021/12/11 07:22:04;;;;;;;37.25;21.25;;;-2.30;99.90;;;;;;5078801;28;20044;-84
2021/12/11 07:24:32;;;;;;;38.95;24.15;;;-2.30;99.90;;;;;;5056433;28;20067;-84
2021/12/11 07:26:59;;;;;;;31.38;22.45;;;-2.30;99.90;;;;;;5078929;28;20044;-84
2021/12/11 07:29:25;;;;;;;36.85;21.67;;;-2.30;99.90;;;;;;5062871;28;20048;-83
2021/12/11 07:31:53;;;;;;;39.40;24.80;;;-2.30;99.90;;;;;;5077006;28;20048;-84
2021/12/11 07:34:19;;;;;;;38.00;23.15;;;-2.30;99.90;;;;;;5056792;28;20434;-84
2021/12/11 07:36:46;;;;;;;43.40;24.25;;;-2.30;99.90;;;;;;5060745;28;20279;-82
2021/12/11 07:39:12;;;;;;;34.97;22.67;;;-2.30;99.90;;;;;;5060298;28;20049;-83
2021/12/11 07:41:40;;;;;;;38.63;24.30;;;-2.30;99.90;;;;;;5060372;28;20055;-84
2021/12/11 07:44:06;;;;;;;37.67;22.05;;;-2.20;99.90;;;;;;5059258;28;20045;-84
2021/12/11 07:46:34;;;;;;;40.80;23.65;;;-2.20;99.90;;;;;;5060630;28;20066;-85
2021/12/11 07:49:02;;;;;;;35.42;24.23;;;-2.20;99.90;;;;;;5063161;28;20052;-85
2021/12/11 07:51:29;;;;;;;39.00;23.00;;;-2.20;99.90;;;;;;5059759;28;20053;-83
2021/12/11 07:53:55;;;;;;;35.28;21.92;;;-2.20;99.90;;;;;;5064951;28;20045;-84
2021/12/11 07:56:22;;;;;;;40.22;24.85;;;-2.20;99.90;;;;;;5064139;28;20381;-84
2021/12/11 07:58:48;;;;;;;37.90;24.65;;;-2.20;99.90;;;;;;5065465;28;20664;-84
2021/12/11 08:01:15;;;;;;;34.63;21.25;;;-2.20;99.90;;;;;;5064198;28;20044;-84
2021/12/11 08:03:41;;;;;;;41.60;26.23;;;-2.10;99.90;;;;;;5064326;28;20048;-82
2021/12/11 08:06:08;;;;;;;46.33;24.92;;;-2.10;99.90;;;;;;5065343;28;20049;-83
2021/12/11 08:08:34;;;;;;;40.22;25.98;;;-2.10;99.90;;;;;;5061481;28;20052;-85
2021/12/11 08:11:01;;;;;;;36.70;24.33;;;-2.00;99.90;;;;;;5054388;28;20041;-85
2021/12/11 08:13:28;;;;;;;42.72;25.35;;;-2.00;99.90;;;;;;5053595;28;20067;-85
2021/12/11 08:15:55;;;;;;;40.28;26.83;;;-1.90;99.90;;;;;;5064313;28;20045;-84
2021/12/11 08:18:22;;;;;;;41.00;25.63;;;-1.90;99.90;;;;;;5064031;28;20041;-83
2021/12/11 08:20:48;;;;;;;38.15;25.25;;;-1.80;99.90;;;;;;5069070;28;20339;-85
2021/12/11 08:23:15;;;;;;;37.30;25.30;;;-1.80;99.90;;;;;;5070233;28;20048;-85
2021/12/11 08:25:41;;;;;;;41.78;26.52;;;-1.80;99.90;;;;;;5061990;28;20127;-85
2021/12/11 08:28:08;;;;;;;41.80;28.23;;;-1.60;99.90;;;;;;5064953;28;20054;-85
2021/12/11 08:30:34;;;;;;;52.03;28.52;;;-1.50;99.90;;;;;;5059557;28;20540;-87
2021/12/11 08:33:01;;;;;;;49.60;29.33;;;-1.40;99.90;;;;;;5061449;28;20415;-86
2021/12/11 08:35:27;;;;;;;49.03;29.13;;;-1.30;99.90;;;;;;5057962;28;20534;-88
2021/12/11 08:37:54;;;;;;;54.65;31.65;;;-1.10;99.90;;;;;;5056502;28;20048;-87
2021/12/11 08:40:21;;;;;;;46.88;31.50;;;-1.10;99.90;;;;;;5061116;28;20040;-87
2021/12/11 08:42:47;;;;;;;63.92;33.70;;;-1.00;99.90;;;;;;5070857;28;20049;-86
2021/12/11 08:45:21;;;;;;;64.00;32.40;;;-0.80;99.90;;;;;;5055540;28;20055;-87
2021/12/11 08:47:48;;;;;;;54.65;31.75;;;-0.70;99.90;;;;;;5058614;28;20233;-87
2021/12/11 08:50:14;;;;;;;65.75;31.48;;;-0.60;99.90;;;;;;5054411;28;20041;-87
2021/12/11 08:52:41;;;;;;;55.15;31.77;;;-0.50;99.90;;;;;;5060493;28;20048;-84
2021/12/11 08:55:07;;;;;;;51.88;33.08;;;-0.40;99.90;;;;;;5058025;28;20047;-85
2021/12/11 08:57:36;;;;;;;57.90;31.42;;;-0.30;99.90;;;;;;5063425;28;20045;-84
2021/12/11 09:00:02;;;;;;;54.83;32.90;;;-0.20;99.90;;;;;;5061586;28;20052;-85
2021/12/11 09:02:29;;;;;;;46.20;30.83;;;-0.10;99.90;;;;;;5061372;28;20053;-85
2021/12/11 09:04:56;;;;;;;48.88;30.27;;;-0.10;99.90;;;;;;5056696;28;20053;-85
2021/12/11 09:07:22;;;;;;;49.35;29.23;;;0.00;99.90;;;;;;5063907;28;20102;-84
2021/12/11 09:09:49;;;;;;;48.72;30.67;;;0.10;99.90;;;;;;5059002;28;20048;-84
2021/12/11 09:12:15;;;;;;;50.03;29.25;;;0.20;99.90;;;;;;5059488;28;20040;-83
2021/12/11 09:14:42;;;;;;;47.63;27.35;;;0.20;99.90;;;;;;5063622;28;20044;-84
2021/12/11 09:17:08;;;;;;;47.08;28.45;;;0.40;99.90;;;;;;5070447;28;20053;-83
2021/12/11 09:19:35;;;;;;;48.00;29.50;;;0.40;99.90;;;;;;5060235;28;20048;-83
2021/12/11 09:22:02;;;;;;;52.72;29.20;;;0.40;99.90;;;;;;5064589;28;20065;-83
2021/12/11 09:24:28;;;;;;;44.40;28.75;;;0.50;99.90;;;;;;5059183;28;20417;-83
2021/12/11 09:26:55;;;;;;;43.83;27.65;;;0.60;99.90;;;;;;5053783;28;20641;-83
2021/12/11 09:29:22;;;;;;;44.80;26.80;;;0.60;99.90;;;;;;5057946;28;20472;-83
2021/12/11 09:31:49;;;;;;;45.28;27.65;;;0.70;99.90;;;;;;5056854;28;20105;-83
2021/12/11 09:34:17;;;;;;;39.67;26.45;;;0.80;99.90;;;;;;5061342;28;20044;-82
2021/12/11 09:36:43;;;;;;;45.45;28.27;;;0.90;99.90;;;;;;5060681;28;20048;-81
2021/12/11 09:39:10;;;;;;;41.33;28.50;;;0.90;99.90;;;;;;5061203;28;20057;-82
2021/12/11 09:41:36;;;;;;;55.00;29.58;;;1.00;99.90;;;;;;5059446;28;20534;-83
2021/12/11 09:44:03;;;;;;;54.63;31.75;;;1.10;99.90;;;;;;5063192;28;20468;-83
2021/12/11 09:46:29;;;;;;;42.20;27.42;;;1.10;99.90;;;;;;5066320;28;20495;-82
2021/12/11 09:48:56;;;;;;;43.55;26.58;;;1.20;99.90;;;;;;5060694;28;20060;-83
2021/12/11 09:51:26;;;;;;;46.75;26.75;;;1.30;99.90;;;;;;5065442;28;20052;-82
2021/12/11 09:53:52;;;;;;;45.55;28.10;;;1.30;99.90;;;;;;5061531;28;20076;-84
2021/12/11 09:56:19;;;;;;;43.60;27.15;;;1.40;99.90;;;;;;5054132;28;20048;-82
2021/12/11 09:58:45;;;;;;;39.92;25.00;;;1.60;99.90;;;;;;5065855;28;20056;-82
2021/12/11 10:01:12;;;;;;;40.40;24.85;;;1.70;99.90;;;;;;5063630;28;20051;-82
2021/12/11 10:03:40;;;;;;;48.45;23.67;;;1.70;99.90;;;;;;5059531;28;20052;-82
2021/12/11 10:06:12;;;;;;;37.17;23.83;;;1.90;99.90;;;;;;5068192;28;20048;-83
2021/12/11 10:08:41;;;;;;;40.85;23.13;;;2.00;99.90;;;;;;5050252;28;20045;-83
2021/12/11 10:11:08;;;;;;;45.60;25.02;;;2.10;99.90;;;;;;5047836;28;20064;-82
2021/12/11 10:13:34;;;;;;;43.63;23.73;;;2.20;99.90;;;;;;5051904;28;20057;-82
2021/12/11 10:16:01;;;;;;;32.70;21.73;;;2.30;99.90;;;;;;5063885;28;20063;-82
2021/12/11 10:18:27;;;;;;;39.90;22.65;;;2.40;99.90;;;;;;5051213;28;20053;-83
2021/12/11 10:20:54;;;;;;;51.30;23.58;;;2.50;99.90;;;;;;5046616;28;20769;-83
2021/12/11 10:23:21;;;;;;;34.88;21.60;;;2.60;99.90;;;;;;5077441;28;20052;-82
2021/12/11 10:25:47;;;;;;;35.83;21.85;;;2.70;99.90;;;;;;5052655;28;20056;-83
2021/12/11 10:28:17;;;;;;;38.33;22.20;;;2.60;99.90;;;;;;5054385;28;20049;-83
2021/12/11 10:30:44;;;;;;;32.13;22.17;;;2.70;99.90;;;;;;5056894;28;20423;-82
2021/12/11 10:33:11;;;;;;;33.50;21.52;;;2.80;99.90;;;;;;5059145;28;20111;-82
2021/12/11 10:35:37;;;;;;;32.90;20.90;;;2.90;99.90;;;;;;5062015;28;20049;-82
2021/12/11 10:38:05;;;;;;;32.70;19.60;;;2.90;99.90;;;;;;5062051;28;20138;-82
2021/12/11 10:40:32;;;;;;;29.63;17.92;;;3.00;99.90;;;;;;5061069;28;20056;-82
2021/12/11 10:43:00;;;;;;;29.65;18.48;;;3.00;99.90;;;;;;5057245;28;20056;-83
2021/12/11 10:45:26;;;;;;;35.53;19.58;;;2.90;99.90;;;;;;5058336;28;20052;-83
2021/12/11 10:47:53;;;;;;;32.85;18.27;;;2.90;99.90;;;;;;5058447;28;20064;-84
2021/12/11 10:50:20;;;;;;;27.38;18.65;;;2.90;99.90;;;;;;5057696;28;20076;-85
2021/12/11 10:52:46;;;;;;;27.73;17.58;;;3.00;99.90;;;;;;5058970;28;20052;-86
2021/12/11 10:55:13;;;;;;;27.58;17.58;;;3.10;99.90;;;;;;5071711;28;20037;-85
2021/12/11 10:57:39;;;;;;;33.42;17.98;;;3.20;99.90;;;;;;5053581;28;20160;-85
2021/12/11 11:00:06;;;;;;;28.55;17.90;;;3.30;99.90;;;;;;5062438;28;21066;-84
2021/12/11 11:02:32;;;;;;;28.50;18.88;;;3.40;99.90;;;;;;5067918;28;20415;-84
2021/12/11 11:04:59;;;;;;;29.60;17.38;;;3.50;99.90;;;;;;5058091;28;20492;-85
2021/12/11 11:07:25;;;;;;;31.20;17.02;;;3.50;99.90;;;;;;5057751;28;20045;-85
2021/12/11 11:09:52;;;;;;;30.13;17.75;;;3.60;99.90;;;;;;5063211;28;20518;-85
2021/12/11 11:12:18;;;;;;;25.33;17.52;;;3.60;99.90;;;;;;5065235;28;20539;-82
2021/12/11 11:14:45;;;;;;;30.77;16.67;;;3.60;99.90;;;;;;5057046;28;20053;-82
2021/12/11 11:17:12;;;;;;;30.73;18.00;;;3.70;99.90;;;;;;5053080;28;20404;-84
2021/12/11 11:19:40;;;;;;;25.10;16.80;;;3.70;99.90;;;;;;5065032;28;20075;-84
2021/12/11 11:22:06;;;;;;;27.08;16.17;;;3.80;99.90;;;;;;5052772;28;20049;-83
2021/12/11 11:24:33;;;;;;;29.95;16.58;;;3.80;99.90;;;;;;5052501;28;20045;-83
2021/12/11 11:26:59;;;;;;;35.13;17.52;;;3.90;99.90;;;;;;5053341;28;20045;-83
2021/12/11 11:29:26;;;;;;;22.73;17.48;;;3.80;99.90;;;;;;5054371;28;20060;-83
2021/12/11 11:31:53;;;;;;;30.13;18.33;;;3.80;99.90;;;;;;5061403;28;20484;-83
2021/12/11 11:34:19;;;;;;;28.80;16.65;;;3.80;99.90;;;;;;5055923;28;20052;-83
2021/12/11 11:36:46;;;;;;;32.75;15.43;;;3.80;99.90;;;;;;5054107;28;20059;-81
2021/12/11 11:39:12;;;;;;;26.38;17.00;;;3.90;99.90;;;;;;5058424;28;20393;-83
2021/12/11 11:41:39;;;;;;;27.85;16.35;;;3.90;99.90;;;;;;5057606;28;20057;-83
2021/12/11 11:44:06;;;;;;;34.72;18.35;;;4.00;99.90;;;;;;5053810;28;20045;-84
2021/12/11 11:46:32;;;;;;;30.08;17.23;;;4.00;99.90;;;;;;5057412;28;20407;-84
2021/12/11 11:48:59;;;;;;;27.55;17.30;;;4.00;99.90;;;;;;5048091;28;20388;-83
2021/12/11 11:51:25;;;;;;;33.53;18.92;;;4.00;99.90;;;;;;5052216;28;20596;-83
2021/12/11 11:53:52;;;;;;;27.92;18.08;;;4.10;99.90;;;;;;5057597;28;20582;-83
2021/12/11 11:56:18;;;;;;;31.30;19.30;;;4.10;99.90;;;;;;5054156;28;20052;-83
2021/12/11 11:58:45;;;;;;;27.90;19.33;;;4.00;99.90;;;;;;5061502;28;20061;-83
2021/12/11 12:01:11;;;;;;;28.98;17.98;;;4.00;99.90;;;;;;5060334;28;20047;-84
2021/12/11 12:03:38;;;;;;;27.05;17.88;;;4.00;99.90;;;;;;5054685;28;20481;-85
2021/12/11 12:06:05;;;;;;;26.55;17.65;;;4.00;99.90;;;;;;5059206;28;20095;-83
2021/12/11 12:08:33;;;;;;;35.35;18.45;;;4.10;99.90;;;;;;5055710;28;20140;-84
2021/12/11 12:11:00;;;;;;;30.75;18.13;;;4.10;99.90;;;;;;5056369;28;20059;-83
2021/12/11 12:13:26;;;;;;;34.90;21.13;;;4.00;99.90;;;;;;5056733;28;20053;-84
2021/12/11 12:15:53;;;;;;;28.13;18.08;;;4.00;99.90;;;;;;5053445;28;20451;-83
2021/12/11 12:18:20;;;;;;;35.63;20.58;;;4.10;99.90;;;;;;5054999;28;20491;-83
2021/12/11 12:20:46;;;;;;;30.25;19.67;;;3.90;99.90;;;;;;5055476;28;20049;-83
2021/12/11 12:23:13;;;;;;;33.35;19.95;;;3.90;99.90;;;;;;5063131;28;20048;-84
2021/12/11 12:25:39;;;;;;;31.17;20.13;;;3.90;99.90;;;;;;5063421;28;20082;-84
2021/12/11 12:28:06;;;;;;;34.17;21.23;;;4.10;99.90;;;;;;5058890;28;20048;-84
2021/12/11 12:30:32;;;;;;;35.85;21.35;;;4.10;99.90;;;;;;5062231;28;20049;-82